Time;durP1;ratioP1;P1;durP2;ratioP2;P2;SDS_P1;SDS_P2;PMS_P1;PMS_P2;Temp;Humidity;BMP_temperature;BMP_pressure;BME280_temperature;BME280_humidity;BME280_pressure;Samples;Min_cycle;Max_cycle;Signal;HPM_P1;HPM_P2
2022/04/28 00:00:10;;;;;;;;;;;11.60;47.10;;;;;;2377501;53;20069;-75
2022/04/28 00:02:37;;;;;;;;;;;11.60;47.10;;;;;;2377141;53;20299;-75
2022/04/28 00:05:04;;;;;;;;;;;11.50;47.10;;;;;;2377592;54;20065;-71
2022/04/28 00:07:30;;;;;;;;;;;11.50;47.10;;;;;;2377673;53;20426;-76
2022/04/28 00:09:57;;;;;;;;;;;11.40;47.10;;;;;;2630856;52;20050;-72
2022/04/28 00:12:23;;;;;;;;;;;11.40;47.10;;;;;;2376989;54;20227;-74
2022/04/28 00:14:52;;;;;;;;;;;11.30;47.10;;;;;;2375711;53;20110;-74
2022/04/28 00:17:19;;;;;;;;;;;11.30;47.70;;;;;;2473715;52;20075;-76
2022/04/28 00:19:45;;;;;;;;;;;11.30;47.10;;;;;;2382380;53;20360;-71
2022/04/28 00:22:13;;;;;;;;;;;11.20;47.10;;;;;;2368228;53;20049;-72
2022/04/28 00:24:39;;;;;;;;;;;11.20;47.20;;;;;;2375993;53;20378;-74
2022/04/28 00:27:06;;;;;;;;;;;11.20;47.20;;;;;;2377669;54;20049;-75
2022/04/28 00:29:32;;;;;;;;;;;11.10;47.30;;;;;;2621120;52;20377;-73
2022/04/28 00:31:58;;;;;;;;;;;11.10;47.30;;;;;;2379774;53;20081;-71
2022/04/28 00:34:24;;;;;;;;;;;11.10;47.30;;;;;;2376215;53;20117;-77
2022/04/28 00:36:51;;;;;;;;;;;11.00;47.30;;;;;;2630542;52;20078;-74
2022/04/28 00:39:17;;;;;;;;;;;11.00;47.40;;;;;;2380905;53;20125;-75
2022/04/28 00:41:44;;;;;;;;;;;11.00;47.40;;;;;;2381330;53;20089;-73
2022/04/28 00:44:11;;;;;;;;;;;11.00;47.50;;;;;;2377399;53;20105;-75
2022/04/28 00:46:42;;;;;;;;;;;10.90;47.40;;;;;;2631403;52;20357;-72
2022/04/28 00:51:54;;;;;;;;;;;10.80;47.60;;;;;;2377130;54;20090;-77
2022/04/28 00:54:24;;;;;;;;;;;10.80;47.50;;;;;;2427505;52;20074;-77
2022/04/28 00:56:50;;;;;;;;;;;10.80;47.50;;;;;;2430218;52;20113;-76
2022/04/28 00:59:17;;;;;;;;;;;10.70;47.50;;;;;;2377426;53;20065;-73
2022/04/28 01:01:43;;;;;;;;;;;10.70;47.60;;;;;;2377455;53;20536;-74
2022/04/28 01:04:09;;;;;;;;;;;10.70;47.60;;;;;;2377174;54;20456;-72
2022/04/28 01:06:35;;;;;;;;;;;10.50;47.40;;;;;;2381401;53;20121;-74
2022/04/28 01:09:01;;;;;;;;;;;10.60;47.50;;;;;;2384145;52;20070;-76
2022/04/28 01:11:27;;;;;;;;;;;10.60;47.60;;;;;;2377885;54;20381;-77
2022/04/28 01:13:55;;;;;;;;;;;10.60;47.70;;;;;;2381588;53;20085;-75
2022/04/28 01:16:21;;;;;;;;;;;10.50;47.70;;;;;;2438281;52;20524;-72
2022/04/28 01:18:47;;;;;;;;;;;10.50;47.80;;;;;;2376496;53;20560;-71
2022/04/28 01:21:14;;;;;;;;;;;10.50;47.90;;;;;;2399887;52;20106;-71
2022/04/28 01:23:41;;;;;;;;;;;10.40;47.90;;;;;;2376845;53;20394;-77
2022/04/28 01:26:07;;;;;;;;;;;10.40;48.00;;;;;;2376997;53;20679;-74
2022/04/28 01:28:34;;;;;;;;;;;10.30;48.00;;;;;;2378567;53;20137;-76
2022/04/28 01:31:02;;;;;;;;;;;10.40;48.10;;;;;;2631375;52;20124;-76
2022/04/28 01:33:32;;;;;;;;;;;10.40;48.10;;;;;;2381144;53;20101;-72
2022/04/28 01:35:58;;;;;;;;;;;10.40;48.10;;;;;;2377563;54;20078;-75
2022/04/28 01:38:24;;;;;;;;;;;10.30;48.00;;;;;;2631307;52;20471;-73
2022/04/28 01:40:50;;;;;;;;;;;10.30;48.00;;;;;;2546815;52;20093;-76
2022/04/28 01:43:27;;;;;;;;;;;;;;;;;;;;;
2022/04/28 01:45:53;;;;;;;;;;;10.30;48.10;;;;;;2378711;53;20163;-72
2022/04/28 01:48:20;;;;;;;;;;;10.20;48.00;;;;;;2501889;52;20062;-70
2022/04/28 01:54:57;;;;;;;;;;;10.20;48.10;;;;;;2380292;53;20165;-76
2022/04/28 01:57:27;;;;;;;;;;;10.20;48.00;;;;;;2377447;53;20134;-75
2022/04/28 01:59:58;;;;;;;;;;;10.10;48.00;;;;;;2454281;52;20338;-74
2022/04/28 02:02:24;;;;;;;;;;;10.10;48.10;;;;;;2379918;53;20764;-70
2022/04/28 02:04:50;;;;;;;;;;;10.10;48.10;;;;;;2380773;53;20078;-73
2022/04/28 02:07:17;;;;;;;;;;;10.10;48.20;;;;;;2376640;53;20062;-74
2022/04/28 02:09:45;;;;;;;;;;;10.00;48.10;;;;;;2381022;53;20093;-71
2022/04/28 02:12:13;;;;;;;;;;;10.00;48.20;;;;;;2476836;52;20062;-74
2022/04/28 02:14:42;;;;;;;;;;;10.00;48.30;;;;;;2377865;53;20062;-75
2022/04/28 02:17:08;;;;;;;;;;;10.00;48.30;;;;;;2382145;53;20105;-72
2022/04/28 02:19:36;;;;;;;;;;;9.90;49.10;;;;;;2631097;52;20062;-73
2022/04/28 02:22:03;;;;;;;;;;;9.90;49.10;;;;;;2619609;52;20109;-75
2022/04/28 02:24:29;;;;;;;;;;;9.90;49.20;;;;;;2443226;52;20125;-74
2022/04/28 02:26:55;;;;;;;;;;;9.90;49.60;;;;;;2376793;53;20058;-74
2022/04/28 02:29:21;;;;;;;;;;;9.80;49.10;;;;;;2462068;52;20062;-72
2022/04/28 02:31:48;;;;;;;;;;;9.80;49.20;;;;;;2385462;52;20306;-76
2022/04/28 02:34:14;;;;;;;;;;;9.80;49.20;;;;;;2377101;53;20240;-75
2022/04/28 02:36:40;;;;;;;;;;;9.80;49.40;;;;;;2376733;53;20089;-75
2022/04/28 02:39:07;;;;;;;;;;;9.70;49.20;;;;;;2434817;52;20256;-73
2022/04/28 02:41:33;;;;;;;;;;;9.70;49.20;;;;;;2375708;53;20057;-74
2022/04/28 02:44:00;;;;;;;;;;;9.70;49.30;;;;;;2380789;53;20133;-74
2022/04/28 02:46:27;;;;;;;;;;;9.70;49.30;;;;;;2512992;52;20129;-75
2022/04/28 02:48:53;;;;;;;;;;;9.70;49.40;;;;;;2376657;53;20795;-77
2022/04/28 02:51:19;;;;;;;;;;;9.60;49.30;;;;;;2376709;54;20449;-74
2022/04/28 02:53:45;;;;;;;;;;;9.60;49.30;;;;;;2377709;54;20061;-72
2022/04/28 02:56:11;;;;;;;;;;;9.60;49.40;;;;;;2377390;54;20370;-74
2022/04/28 02:58:39;;;;;;;;;;;9.50;49.30;;;;;;2544147;52;20050;-72
2022/04/28 03:01:05;;;;;;;;;;;9.50;49.40;;;;;;2377679;53;20153;-76
2022/04/28 03:03:31;;;;;;;;;;;9.50;49.40;;;;;;2628667;52;20118;-71
2022/04/28 03:11:27;;;;;;;;;;;9.40;49.60;;;;;;2597518;52;20591;-72
2022/04/28 03:13:54;;;;;;;;;;;9.40;49.60;;;;;;2376233;53;20381;-77
2022/04/28 03:16:20;;;;;;;;;;;9.40;49.60;;;;;;2630646;52;20050;-76
2022/04/28 03:18:47;;;;;;;;;;;9.40;49.60;;;;;;2404586;52;20073;-75
2022/04/28 03:21:13;;;;;;;;;;;9.40;49.60;;;;;;2551676;52;20061;-74
2022/04/28 03:23:40;;;;;;;;;;;9.40;49.60;;;;;;2375510;53;20157;-73
2022/04/28 03:26:06;;;;;;;;;;;9.30;49.60;;;;;;2375756;53;20093;-72
2022/04/28 03:28:35;;;;;;;;;;;9.30;49.70;;;;;;2461433;52;20086;-72
2022/04/28 03:31:02;;;;;;;;;;;9.30;49.60;;;;;;2430805;53;20142;-74
2022/04/28 03:33:28;;;;;;;;;;;9.30;49.60;;;;;;2373117;52;20086;-72
2022/04/28 03:35:57;;;;;;;;;;;9.30;49.60;;;;;;2353090;54;20636;-73
2022/04/28 03:38:23;;;;;;;;;;;9.20;49.60;;;;;;2381442;52;20349;-76
2022/04/28 03:40:49;;;;;;;;;;;9.20;49.60;;;;;;2376332;53;20113;-74
2022/04/28 03:43:17;;;;;;;;;;;9.20;49.60;;;;;;2376199;54;20069;-71
2022/04/28 03:45:44;;;;;;;;;;;9.20;49.60;;;;;;2376656;53;20114;-73
2022/04/28 03:48:10;;;;;;;;;;;9.20;49.70;;;;;;2378159;53;20136;-73
2022/04/28 03:50:36;;;;;;;;;;;9.10;49.70;;;;;;2368226;53;20542;-74
2022/04/28 03:53:03;;;;;;;;;;;9.10;49.70;;;;;;2356210;53;20331;-76
2022/04/28 03:55:29;;;;;;;;;;;9.10;49.80;;;;;;2376445;54;20142;-75
2022/04/28 03:57:56;;;;;;;;;;;9.00;49.60;;;;;;2375966;54;20320;-77
2022/04/28 04:00:22;;;;;;;;;;;9.00;49.70;;;;;;2374862;53;20619;-75
2022/04/28 04:02:48;;;;;;;;;;;8.90;49.70;;;;;;2376746;53;20339;-76
2022/04/28 04:05:15;;;;;;;;;;;9.00;49.70;;;;;;2472212;52;20113;-77
2022/04/28 04:07:42;;;;;;;;;;;9.00;49.80;;;;;;2369057;54;20648;-74
2022/04/28 04:10:09;;;;;;;;;;;8.90;49.70;;;;;;2619256;52;20178;-72
2022/04/28 04:12:35;;;;;;;;;;;8.90;49.70;;;;;;2375931;53;20291;-72
2022/04/28 04:15:01;;;;;;;;;;;8.90;49.70;;;;;;2378912;53;20058;-74
2022/04/28 04:17:28;;;;;;;;;;;8.90;49.80;;;;;;2515504;52;20046;-74
2022/04/28 04:19:55;;;;;;;;;;;8.90;49.80;;;;;;2376005;54;20125;-73
2022/04/28 04:22:21;;;;;;;;;;;8.80;49.80;;;;;;2630891;52;20102;-72
2022/04/28 04:24:47;;;;;;;;;;;8.80;49.80;;;;;;2375598;53;20162;-75
2022/04/28 04:27:15;;;;;;;;;;;8.80;49.90;;;;;;2382792;52;20070;-77
2022/04/28 04:29:41;;;;;;;;;;;8.70;49.90;;;;;;2409301;52;20377;-73
2022/04/28 04:32:24;;;;;;;;;;;8.70;49.90;;;;;;2376668;53;20089;-71
2022/04/28 04:34:54;;;;;;;;;;;8.70;50.00;;;;;;2630454;52;20078;-73
2022/04/28 04:37:21;;;;;;;;;;;8.70;50.00;;;;;;2498771;52;20101;-75
2022/04/28 04:39:48;;;;;;;;;;;8.70;50.10;;;;;;2377004;54;20295;-72
2022/04/28 04:42:17;;;;;;;;;;;8.70;50.10;;;;;;2377391;53;20074;-72
2022/04/28 04:44:44;;;;;;;;;;;8.70;50.10;;;;;;2377273;54;20085;-72
2022/04/28 04:47:10;;;;;;;;;;;8.70;50.20;;;;;;2380025;53;20066;-73
2022/04/28 04:49:37;;;;;;;;;;;8.70;50.20;;;;;;2361686;53;20299;-74
2022/04/28 04:52:03;;;;;;;;;;;8.70;50.30;;;;;;2377592;53;20150;-72
2022/04/28 04:54:29;;;;;;;;;;;8.70;50.40;;;;;;2376907;53;20390;-73
2022/04/28 04:56:55;;;;;;;;;;;8.70;50.40;;;;;;2549209;52;20069;-71
2022/04/28 04:59:22;;;;;;;;;;;8.70;50.40;;;;;;2377251;53;20065;-75
2022/04/28 05:01:48;;;;;;;;;;;8.70;50.40;;;;;;2376629;54;20085;-73
2022/04/28 05:04:14;;;;;;;;;;;8.70;50.40;;;;;;2581729;52;20106;-74
2022/04/28 05:06:42;;;;;;;;;;;8.70;50.40;;;;;;2362405;53;20093;-73
2022/04/28 05:09:08;;;;;;;;;;;8.70;50.50;;;;;;2626020;52;20065;-73
2022/04/28 05:11:34;;;;;;;;;;;8.70;50.50;;;;;;2376913;54;20307;-76
2022/04/28 05:14:00;;;;;;;;;;;8.70;50.50;;;;;;2376570;53;20156;-76
2022/04/28 05:16:29;;;;;;;;;;;8.70;50.50;;;;;;2396927;52;20137;-72
2022/04/28 05:18:55;;;;;;;;;;;8.70;50.60;;;;;;2627475;52;20593;-75
2022/04/28 05:21:22;;;;;;;;;;;8.70;50.60;;;;;;2376859;54;20082;-76
2022/04/28 05:23:48;;;;;;;;;;;8.70;51.30;;;;;;2376952;54;20069;-75
2022/04/28 05:26:14;;;;;;;;;;;8.70;50.70;;;;;;2372930;53;20134;-76
2022/04/28 05:28:41;;;;;;;;;;;8.80;50.90;;;;;;2413946;52;20463;-71
2022/04/28 05:31:07;;;;;;;;;;;8.80;50.90;;;;;;2376645;53;20101;-73
2022/04/28 05:33:34;;;;;;;;;;;8.80;51.00;;;;;;2377345;53;20082;-75
2022/04/28 05:36:00;;;;;;;;;;;8.80;51.00;;;;;;2470424;52;20129;-71
2022/04/28 05:38:27;;;;;;;;;;;8.90;51.10;;;;;;2377267;54;20138;-73
2022/04/28 05:40:53;;;;;;;;;;;8.90;51.20;;;;;;2376430;54;20152;-73
2022/04/28 05:46:05;;;;;;;;;;;9.00;51.40;;;;;;2379897;54;20121;-74
2022/04/28 05:48:31;;;;;;;;;;;9.00;51.40;;;;;;2452197;52;20050;-73
2022/04/28 05:50:58;;;;;;;;;;;9.10;51.60;;;;;;2376517;54;20324;-74
2022/04/28 05:53:24;;;;;;;;;;;9.20;51.70;;;;;;2375457;53;20125;-74
2022/04/28 05:55:50;;;;;;;;;;;9.20;51.80;;;;;;2376575;54;20062;-73
2022/04/28 05:58:18;;;;;;;;;;;9.30;51.90;;;;;;2376611;54;20093;-74
2022/04/28 06:00:45;;;;;;;;;;;9.40;52.00;;;;;;2432573;52;20310;-76
2022/04/28 06:03:11;;;;;;;;;;;9.50;52.10;;;;;;2376874;54;20117;-74
2022/04/28 06:05:37;;;;;;;;;;;9.50;52.10;;;;;;2620057;52;20118;-72
2022/04/28 06:08:04;;;;;;;;;;;9.60;52.20;;;;;;2377235;54;20054;-74
2022/04/28 06:10:30;;;;;;;;;;;9.70;52.10;;;;;;2378229;53;20121;-74
2022/04/28 06:12:56;;;;;;;;;;;9.80;52.20;;;;;;2522335;52;20137;-74
2022/04/28 06:15:23;;;;;;;;;;;9.90;52.30;;;;;;2374453;53;20073;-73
2022/04/28 06:17:50;;;;;;;;;;;9.90;52.30;;;;;;2377078;53;20069;-71
2022/04/28 06:20:16;;;;;;;;;;;10.00;51.50;;;;;;2402932;52;20062;-73
2022/04/28 06:22:46;;;;;;;;;;;10.10;51.60;;;;;;2505389;52;20126;-72
2022/04/28 06:25:12;;;;;;;;;;;10.20;51.60;;;;;;2376828;54;20117;-75
2022/04/28 06:27:38;;;;;;;;;;;10.30;51.80;;;;;;2369790;53;20138;-75
2022/04/28 06:30:06;;;;;;;;;;;10.40;51.90;;;;;;2624811;52;20093;-72
2022/04/28 06:32:32;;;;;;;;;;;10.50;52.20;;;;;;2458432;52;20525;-73
2022/04/28 06:34:58;;;;;;;;;;;10.60;52.30;;;;;;2377087;54;20066;-76
2022/04/28 06:37:25;;;;;;;;;;;10.70;52.40;;;;;;2506463;52;20053;-74
2022/04/28 06:39:51;;;;;;;;;;;10.80;52.40;;;;;;2629956;52;20117;-72
2022/04/28 06:42:17;;;;;;;;;;;10.90;52.40;;;;;;2377225;53;20069;-77
2022/04/28 06:44:47;;;;;;;;;;;11.00;52.40;;;;;;2376878;53;20174;-76
2022/04/28 06:47:13;;;;;;;;;;;11.20;52.50;;;;;;2630586;52;20114;-73
2022/04/28 06:49:39;;;;;;;;;;;11.30;52.50;;;;;;2457061;52;20058;-73
2022/04/28 06:52:05;;;;;;;;;;;11.40;52.60;;;;;;2515876;52;20082;-73
2022/04/28 06:54:33;;;;;;;;;;;11.50;52.60;;;;;;2488938;52;20197;-74
2022/04/28 06:56:59;;;;;;;;;;;11.70;52.90;;;;;;2374961;53;20125;-74
2022/04/28 06:59:25;;;;;;;;;;;11.90;53.60;;;;;;2376375;54;20066;-74
2022/04/28 07:01:52;;;;;;;;;;;12.20;54.30;;;;;;2376240;54;20057;-74
2022/04/28 07:04:18;;;;;;;;;;;12.50;55.10;;;;;;2470981;52;20220;-74
2022/04/28 07:06:44;;;;;;;;;;;13.00;55.70;;;;;;2376973;53;20070;-74
2022/04/28 07:09:13;;;;;;;;;;;13.50;56.20;;;;;;2377059;53;20093;-74
2022/04/28 07:11:39;;;;;;;;;;;14.00;56.60;;;;;;2450548;53;20172;-77
2022/04/28 07:14:05;;;;;;;;;;;14.50;56.80;;;;;;2457073;52;20597;-76
2022/04/28 07:16:31;;;;;;;;;;;15.00;56.80;;;;;;2353482;53;20737;-74
2022/04/28 07:18:58;;;;;;;;;;;15.50;56.80;;;;;;2378793;53;20129;-77
2022/04/28 07:21:28;;;;;;;;;;;15.90;56.60;;;;;;2400941;52;20058;-76
2022/04/28 07:23:54;;;;;;;;;;;16.30;56.50;;;;;;2377238;53;20133;-77
2022/04/28 07:26:20;;;;;;;;;;;16.70;56.40;;;;;;2376829;53;20069;-77
2022/04/28 07:28:46;;;;;;;;;;;17.00;56.00;;;;;;2380323;53;20065;-77
2022/04/28 07:31:12;;;;;;;;;;;17.30;55.40;;;;;;2377554;53;20120;-77
2022/04/28 07:33:38;;;;;;;;;;;17.50;55.10;;;;;;2377475;53;20506;-77
2022/04/28 07:36:05;;;;;;;;;;;17.80;54.90;;;;;;2377535;53;20900;-77
2022/04/28 07:38:31;;;;;;;;;;;18.00;54.90;;;;;;2384927;52;20077;-77
2022/04/28 07:40:59;;;;;;;;;;;18.30;55.00;;;;;;2376651;54;20158;-76
2022/04/28 07:43:26;;;;;;;;;;;18.60;55.00;;;;;;2376932;54;20103;-77
2022/04/28 07:45:52;;;;;;;;;;;19.00;54.80;;;;;;2377495;53;20121;-77
2022/04/28 07:48:18;;;;;;;;;;;19.20;54.50;;;;;;2415569;52;20718;-76
2022/04/28 07:50:44;;;;;;;;;;;19.40;54.20;;;;;;2551791;52;20073;-77
2022/04/28 07:53:11;;;;;;;;;;;19.50;53.90;;;;;;2375158;54;20619;-76
2022/04/28 07:55:37;;;;;;;;;;;19.60;53.40;;;;;;2375075;53;20393;-76
2022/04/28 07:58:03;;;;;;;;;;;19.60;53.70;;;;;;2440482;52;20106;-76
2022/04/28 08:00:29;;;;;;;;;;;19.60;52.60;;;;;;2375652;53;20074;-76
2022/04/28 08:02:55;;;;;;;;;;;19.60;52.40;;;;;;2375133;54;20344;-76
2022/04/28 08:05:22;;;;;;;;;;;19.60;52.10;;;;;;2416651;52;20093;-76
2022/04/28 08:07:49;;;;;;;;;;;19.60;51.90;;;;;;2400421;52;20120;-76
2022/04/28 08:10:15;;;;;;;;;;;19.50;51.70;;;;;;2472470;52;20303;-76
2022/04/28 08:12:41;;;;;;;;;;;19.50;51.50;;;;;;2426733;52;20069;-76
2022/04/28 08:15:15;;;;;;;;;;;19.40;51.40;;;;;;2379259;53;20086;-76
2022/04/28 08:17:41;;;;;;;;;;;19.40;51.50;;;;;;2511866;52;20335;-76
2022/04/28 08:20:07;;;;;;;;;;;19.50;51.70;;;;;;2402629;52;20145;-76
2022/04/28 08:22:34;;;;;;;;;;;19.50;51.80;;;;;;2375190;54;20069;-76
2022/04/28 08:25:03;;;;;;;;;;;19.70;52.00;;;;;;2374713;54;20058;-76
2022/04/28 08:27:30;;;;;;;;;;;19.90;52.20;;;;;;2375325;53;20121;-76
2022/04/28 08:29:56;;;;;;;;;;;20.10;52.40;;;;;;2429295;52;20104;-76
2022/04/28 08:32:23;;;;;;;;;;;20.40;52.90;;;;;;2375169;54;20093;-76
2022/04/28 08:34:49;;;;;;;;;;;20.70;53.10;;;;;;2381891;53;20393;-76
2022/04/28 08:37:15;;;;;;;;;;;21.00;53.30;;;;;;2414996;52;20077;-77
2022/04/28 08:39:42;;;;;;;;;;;21.30;53.20;;;;;;2569397;52;20144;-76
2022/04/28 08:42:09;;;;;;;;;;;21.60;53.20;;;;;;2390172;52;20077;-76
2022/04/28 08:44:35;;;;;;;;;;;21.90;53.10;;;;;;2410456;52;20137;-77
2022/04/28 08:47:01;;;;;;;;;;;22.10;52.50;;;;;;2375577;54;20453;-76
2022/04/28 08:49:29;;;;;;;;;;;22.20;52.10;;;;;;2407936;52;20065;-77
2022/04/28 08:51:55;;;;;;;;;;;22.40;51.80;;;;;;2412502;52;20073;-76
2022/04/28 08:54:23;;;;;;;;;;;22.50;51.50;;;;;;2532457;52;20495;-77
2022/04/28 08:56:49;;;;;;;;;;;22.60;51.20;;;;;;2384231;52;20120;-76
2022/04/28 08:59:16;;;;;;;;;;;22.60;50.80;;;;;;2378141;53;20081;-77
2022/04/28 09:01:42;;;;;;;;;;;22.60;50.40;;;;;;2370005;53;20121;-77
2022/04/28 09:04:11;;;;;;;;;;;22.60;50.20;;;;;;2375349;52;20134;-77
2022/04/28 09:06:38;;;;;;;;;;;22.70;50.20;;;;;;2381510;53;20126;-77
2022/04/28 09:09:15;;;;;;;;;;;22.60;49.90;;;;;;2391590;52;20536;-77
2022/04/28 09:11:43;;;;;;;;;;;22.70;49.80;;;;;;2374867;54;20226;-77
2022/04/28 09:14:10;;;;;;;;;;;22.70;49.70;;;;;;2375623;53;20086;-77
2022/04/28 09:16:37;;;;;;;;;;;22.80;49.70;;;;;;2457015;52;20100;-77
2022/04/28 09:19:03;;;;;;;;;;;23.00;49.80;;;;;;2515622;52;20299;-77
2022/04/28 09:21:33;;;;;;;;;;;23.10;49.40;;;;;;2374824;53;20582;-76
2022/04/28 09:24:00;;;;;;;;;;;23.20;49.00;;;;;;2429915;52;20065;-77
2022/04/28 09:26:26;;;;;;;;;;;23.40;48.50;;;;;;2376073;52;20247;-77
2022/04/28 09:28:53;;;;;;;;;;;23.50;48.70;;;;;;2441657;52;20058;-77
2022/04/28 09:31:20;;;;;;;;;;;23.60;47.70;;;;;;2374086;52;20077;-77
2022/04/28 09:33:50;;;;;;;;;;;23.70;47.40;;;;;;2375424;54;20471;-76
2022/04/28 09:36:17;;;;;;;;;;;23.80;47.40;;;;;;2498604;52;20069;-77
2022/04/28 09:38:43;;;;;;;;;;;23.80;47.40;;;;;;2374751;54;20074;-77
2022/04/28 09:43:57;;;;;;;;;;;24.00;47.50;;;;;;2481496;52;20077;-77
2022/04/28 09:46:25;;;;;;;;;;;24.20;47.00;;;;;;2376114;53;20306;-76
2022/04/28 09:48:52;;;;;;;;;;;24.30;47.10;;;;;;2418583;52;20069;-77
2022/04/28 09:51:22;;;;;;;;;;;24.40;47.10;;;;;;2380184;53;20065;-77
2022/04/28 09:53:48;;;;;;;;;;;24.50;46.50;;;;;;2464435;52;20369;-77
2022/04/28 09:56:16;;;;;;;;;;;24.50;46.30;;;;;;2479720;52;20078;-76
2022/04/28 10:02:04;;;;;;;;;;;24.50;45.20;;;;;;2374943;54;20077;-76
2022/04/28 10:04:30;;;;;;;;;;;24.50;45.30;;;;;;2379572;53;20063;-77
2022/04/28 10:06:58;;;;;;;;;;;24.60;45.50;;;;;;2376715;53;20134;-77
2022/04/28 10:09:24;;;;;;;;;;;24.60;45.50;;;;;;2434537;52;20724;-76
2022/04/28 10:11:50;;;;;;;;;;;24.60;45.30;;;;;;2399630;52;20338;-77
2022/04/28 10:14:17;;;;;;;;;;;24.60;45.20;;;;;;2517097;52;20343;-77
2022/04/28 10:16:45;;;;;;;;;;;24.70;45.00;;;;;;2413641;52;20057;-77
2022/04/28 10:19:27;;;;;;;;;;;24.80;45.20;;;;;;2387443;53;20069;-76
2022/04/28 10:21:55;;;;;;;;;;;24.80;45.00;;;;;;2368790;53;20070;-77
2022/04/28 10:32:54;;;;;;;;;;;25.00;44.90;;;;;;2383302;53;20142;-78
2022/04/28 10:37:12;;;;;;;;;;;25.10;44.30;;;;;;2392470;52;20078;-77
2022/04/28 10:39:40;;;;;;;;;;;25.20;44.20;;;;;;2380293;52;20186;-79
2022/04/28 10:42:14;;;;;;;;;;;25.30;44.10;;;;;;2386157;52;20335;-79
2022/04/28 10:44:54;;;;;;;;;;;25.30;43.90;;;;;;2377447;54;20133;-76
2022/04/28 10:47:23;;;;;;;;;;;25.40;44.00;;;;;;2380801;53;20125;-76
2022/04/28 10:49:52;;;;;;;;;;;25.50;43.90;;;;;;2469772;52;20074;-76
2022/04/28 10:52:23;;;;;;;;;;;25.50;43.40;;;;;;2423345;52;20133;-77
2022/04/28 10:54:54;;;;;;;;;;;25.50;43.20;;;;;;2447534;53;20073;-77
2022/04/28 10:57:36;;;;;;;;;;;25.50;42.50;;;;;;2387343;52;20057;-77
2022/04/28 11:00:03;;;;;;;;;;;25.40;42.70;;;;;;2630397;52;20154;-77
2022/04/28 11:02:48;;;;;;;;;;;25.40;42.60;;;;;;2381105;53;20057;-77
2022/04/28 11:05:27;;;;;;;;;;;25.40;42.50;;;;;;2376742;54;20101;-77
2022/04/28 11:07:53;;;;;;;;;;;25.40;42.40;;;;;;2378235;54;20081;-76
2022/04/28 11:10:20;;;;;;;;;;;25.40;42.60;;;;;;2377286;54;20073;-76
2022/04/28 11:12:46;;;;;;;;;;;25.50;42.70;;;;;;2379205;53;20748;-76
2022/04/28 11:15:16;;;;;;;;;;;25.50;42.10;;;;;;2376875;53;20065;-76
2022/04/28 11:17:45;;;;;;;;;;;25.60;42.20;;;;;;2383426;52;20074;-77
2022/04/28 11:20:27;;;;;;;;;;;25.70;42.70;;;;;;2382663;52;20066;-76
2022/04/28 11:22:56;;;;;;;;;;;25.70;43.10;;;;;;2510901;52;20121;-78
2022/04/28 11:25:23;;;;;;;;;;;25.80;42.20;;;;;;2376837;54;20775;-75
2022/04/28 11:27:51;;;;;;;;;;;25.80;42.00;;;;;;2376776;54;20081;-76
2022/04/28 11:30:17;;;;;;;;;;;25.90;41.70;;;;;;2356929;53;21030;-76
2022/04/28 11:33:01;;;;;;;;;;;26.00;41.30;;;;;;2433870;52;20132;-77
2022/04/28 11:35:28;;;;;;;;;;;26.00;41.60;;;;;;2614335;52;20073;-76
2022/04/28 11:37:55;;;;;;;;;;;26.10;41.70;;;;;;2376374;53;20102;-76
2022/04/28 11:40:24;;;;;;;;;;;26.20;41.80;;;;;;2376829;54;20370;-76
2022/04/28 11:42:57;;;;;;;;;;;26.20;41.60;;;;;;2581421;52;20090;-76
2022/04/28 11:45:23;;;;;;;;;;;26.30;41.30;;;;;;2379334;53;20054;-76
2022/04/28 11:47:52;;;;;;;;;;;26.30;41.50;;;;;;2503575;52;20094;-76
2022/04/28 11:50:20;;;;;;;;;;;26.40;42.00;;;;;;2379371;53;20513;-76
2022/04/28 11:52:56;;;;;;;;;;;26.40;41.10;;;;;;2384350;52;20589;-76
2022/04/28 11:55:24;;;;;;;;;;;26.40;41.20;;;;;;2532419;52;20093;-76
2022/04/28 11:57:50;;;;;;;;;;;26.50;41.00;;;;;;2356711;53;20417;-76
2022/04/28 12:00:17;;;;;;;;;;;26.60;41.00;;;;;;2376919;53;20117;-76
2022/04/28 12:02:44;;;;;;;;;;;26.70;40.80;;;;;;2375874;53;20133;-76
2022/04/28 12:05:30;;;;;;;;;;;26.70;40.70;;;;;;2400876;52;20066;-76
2022/04/28 12:07:57;;;;;;;;;;;26.80;41.00;;;;;;2370790;53;20065;-76
2022/04/28 12:16:01;;;;;;;;;;;27.10;40.60;;;;;;2377569;54;20113;-76
2022/04/28 12:21:22;;;;;;;;;;;27.20;40.40;;;;;;2415625;52;20101;-75
2022/04/28 12:23:50;;;;;;;;;;;27.30;40.50;;;;;;2381974;52;20758;-77
2022/04/28 12:26:17;;;;;;;;;;;27.30;40.10;;;;;;2390428;52;20152;-76
2022/04/28 12:28:43;;;;;;;;;;;27.30;39.80;;;;;;2377446;54;20077;-77
2022/04/28 12:31:11;;;;;;;;;;;27.30;39.50;;;;;;2453236;52;20054;-77
2022/04/28 12:33:45;;;;;;;;;;;27.30;39.50;;;;;;2491343;52;20081;-76
2022/04/28 12:36:13;;;;;;;;;;;27.40;39.50;;;;;;2377664;53;20124;-76
2022/04/28 12:38:46;;;;;;;;;;;27.50;39.90;;;;;;2485059;52;20057;-76
2022/04/28 12:41:14;;;;;;;;;;;27.50;39.40;;;;;;2534582;52;20517;-76
2022/04/28 12:43:48;;;;;;;;;;;27.60;39.30;;;;;;2377536;53;20350;-76
2022/04/28 12:46:19;;;;;;;;;;;27.50;38.60;;;;;;2466253;52;20299;-76
2022/04/28 12:48:52;;;;;;;;;;;27.50;39.10;;;;;;2380709;53;20121;-76
2022/04/28 12:51:19;;;;;;;;;;;27.50;38.70;;;;;;2379297;53;20142;-76
2022/04/28 12:53:46;;;;;;;;;;;27.50;38.40;;;;;;2402040;52;20344;-76
2022/04/28 12:56:14;;;;;;;;;;;27.50;38.30;;;;;;2377397;54;20106;-76
2022/04/28 12:58:47;;;;;;;;;;;27.50;38.70;;;;;;2376480;54;20500;-75
2022/04/28 13:01:15;;;;;;;;;;;27.50;38.60;;;;;;2469487;52;20136;-76
2022/04/28 13:03:41;;;;;;;;;;;27.50;38.50;;;;;;2579854;52;20141;-75
2022/04/28 13:06:08;;;;;;;;;;;27.40;37.70;;;;;;2586664;52;20173;-76
2022/04/28 13:08:38;;;;;;;;;;;27.40;37.70;;;;;;2375819;54;20106;-76
2022/04/28 13:11:05;;;;;;;;;;;27.40;37.80;;;;;;2392970;52;20058;-75
2022/04/28 13:13:31;;;;;;;;;;;27.40;37.70;;;;;;2433204;52;20085;-76
2022/04/28 13:15:57;;;;;;;;;;;27.50;38.00;;;;;;2366990;53;20094;-76
2022/04/28 13:18:23;;;;;;;;;;;27.50;37.90;;;;;;2433615;52;20062;-76
2022/04/28 13:20:50;;;;;;;;;;;27.50;38.20;;;;;;2374627;54;20153;-76
2022/04/28 13:23:16;;;;;;;;;;;27.60;37.20;;;;;;2383385;53;20066;-76
2022/04/28 13:25:42;;;;;;;;;;;27.60;37.30;;;;;;2403841;53;20077;-76
2022/04/28 13:28:09;;;;;;;;;;;27.60;36.90;;;;;;2375475;54;20137;-76
2022/04/28 13:30:35;;;;;;;;;;;27.60;36.90;;;;;;2378281;53;20148;-76
2022/04/28 13:33:02;;;;;;;;;;;27.60;36.90;;;;;;2474073;52;20143;-75
2022/04/28 13:35:31;;;;;;;;;;;27.60;36.70;;;;;;2389751;53;20097;-75
2022/04/28 13:37:57;;;;;;;;;;;27.60;36.60;;;;;;2376789;53;20140;-75
2022/04/28 13:40:26;;;;;;;;;;;27.70;36.80;;;;;;2510904;52;20102;-76
2022/04/28 13:42:52;;;;;;;;;;;27.70;36.50;;;;;;2540067;52;20126;-76
2022/04/28 13:45:18;;;;;;;;;;;27.80;36.80;;;;;;2445243;52;20141;-76
2022/04/28 13:47:47;;;;;;;;;;;27.80;36.70;;;;;;2375451;54;20112;-76
2022/04/28 13:50:13;;;;;;;;;;;27.90;36.70;;;;;;2374588;53;20143;-76
2022/04/28 13:52:40;;;;;;;;;;;28.00;36.70;;;;;;2375399;53;20639;-76
2022/04/28 13:55:07;;;;;;;;;;;28.10;36.80;;;;;;2379152;54;20146;-76
2022/04/28 13:57:33;;;;;;;;;;;28.20;36.90;;;;;;2394796;52;20130;-76
2022/04/28 14:00:00;;;;;;;;;;;28.20;36.70;;;;;;2375300;53;20857;-76
2022/04/28 14:02:26;;;;;;;;;;;28.30;36.50;;;;;;2375674;54;20109;-75
2022/04/28 14:04:55;;;;;;;;;;;28.40;36.80;;;;;;2519450;52;20185;-76
2022/04/28 14:07:21;;;;;;;;;;;28.40;36.30;;;;;;2375587;54;20202;-76
2022/04/28 14:09:48;;;;;;;;;;;28.40;36.30;;;;;;2375649;53;20137;-76
2022/04/28 14:12:14;;;;;;;;;;;28.40;35.90;;;;;;2588024;52;20133;-76
2022/04/28 14:14:41;;;;;;;;;;;28.40;35.60;;;;;;2405195;52;20129;-76
2022/04/28 14:17:08;;;;;;;;;;;28.40;35.60;;;;;;2489326;52;20070;-76
2022/04/28 14:19:34;;;;;;;;;;;28.30;35.30;;;;;;2374992;53;20373;-76
2022/04/28 14:22:01;;;;;;;;;;;28.40;35.60;;;;;;2374674;54;20066;-76
2022/04/28 14:24:28;;;;;;;;;;;28.40;35.70;;;;;;2436993;52;20081;-76
2022/04/28 14:26:54;;;;;;;;;;;28.30;35.30;;;;;;2374942;53;20105;-76
2022/04/28 14:29:22;;;;;;;;;;;28.40;35.20;;;;;;2376932;53;20121;-76
2022/04/28 14:31:49;;;;;;;;;;;28.30;35.10;;;;;;2377461;54;20082;-75
2022/04/28 14:34:21;;;;;;;;;;;28.30;35.30;;;;;;2403774;53;20082;-76
2022/04/28 14:36:48;;;;;;;;;;;28.30;35.10;;;;;;2410693;52;20714;-76
2022/04/28 14:39:14;;;;;;;;;;;28.40;35.10;;;;;;2471870;52;20110;-76
2022/04/28 14:41:41;;;;;;;;;;;28.40;35.00;;;;;;2377415;53;20768;-76
2022/04/28 14:44:07;;;;;;;;;;;28.30;34.70;;;;;;2622996;52;20133;-76
2022/04/28 14:46:33;;;;;;;;;;;28.30;34.80;;;;;;2430141;53;20125;-76
2022/04/28 14:54:29;;;;;;;;;;;28.30;34.70;;;;;;2380289;53;20079;-77
2022/04/28 14:56:55;;;;;;;;;;;28.30;34.20;;;;;;2421533;52;20129;-77
2022/04/28 14:59:21;;;;;;;;;;;28.20;34.10;;;;;;2368282;53;20062;-76
2022/04/28 15:01:48;;;;;;;;;;;28.10;34.20;;;;;;2438859;52;20089;-76
2022/04/28 15:04:15;;;;;;;;;;;28.10;34.20;;;;;;2405635;52;20591;-76
2022/04/28 15:06:41;;;;;;;;;;;28.00;33.70;;;;;;2436464;52;20065;-77